sensor_id;sensor_type;location;lat;lon;timestamp;pressure;altitude;pressure_sealevel;temperature
32039;BMP280;18549;42.286;22.688;2022-09-09T00:00:21;95845.97;;;24.04
32039;BMP280;18549;42.286;22.688;2022-09-09T00:02:54;95849.81;;;24.00
32039;BMP280;18549;42.286;22.688;2022-09-09T00:05:29;95837.75;;;24.02
32039;BMP280;18549;42.286;22.688;2022-09-09T00:07:59;95837.13;;;24.00
32039;BMP280;18549;42.286;22.688;2022-09-09T00:10:32;95842.19;;;24.00
32039;BMP280;18549;42.286;22.688;2022-09-09T00:13:08;95842.41;;;23.99
32039;BMP280;18549;42.286;22.688;2022-09-09T00:15:42;95845.88;;;23.98
32039;BMP280;18549;42.286;22.688;2022-09-09T00:18:17;95845.09;;;23.97
32039;BMP280;18549;42.286;22.688;2022-09-09T00:20:55;95845.75;;;23.91
32039;BMP280;18549;42.286;22.688;2022-09-09T00:23:25;95844.19;;;23.90
32039;BMP280;18549;42.286;22.688;2022-09-09T00:26:01;95834.44;;;23.87
32039;BMP280;18549;42.286;22.688;2022-09-09T00:28:32;95831.28;;;23.85
32039;BMP280;18549;42.286;22.688;2022-09-09T00:31:11;95825.25;;;23.86
32039;BMP280;18549;42.286;22.688;2022-09-09T00:33:39;95832.56;;;23.82
32039;BMP280;18549;42.286;22.688;2022-09-09T00:36:13;95835.72;;;23.84
32039;BMP280;18549;42.286;22.688;2022-09-09T00:38:44;95845.38;;;23.80
32039;BMP280;18549;42.286;22.688;2022-09-09T00:41:19;95846.19;;;23.81
32039;BMP280;18549;42.286;22.688;2022-09-09T00:43:56;95850.97;;;23.76
32039;BMP280;18549;42.286;22.688;2022-09-09T00:46:48;95847.53;;;23.69
32039;BMP280;18549;42.286;22.688;2022-09-09T00:49:25;95853.72;;;23.66
32039;BMP280;18549;42.286;22.688;2022-09-09T00:52:08;95846.13;;;23.66
32039;BMP280;18549;42.286;22.688;2022-09-09T00:54:47;95852.00;;;23.67
32039;BMP280;18549;42.286;22.688;2022-09-09T00:57:24;95842.81;;;23.66
32039;BMP280;18549;42.286;22.688;2022-09-09T00:59:58;95845.50;;;23.64
32039;BMP280;18549;42.286;22.688;2022-09-09T01:02:37;95845.97;;;23.68
32039;BMP280;18549;42.286;22.688;2022-09-09T01:05:12;95856.44;;;23.65
32039;BMP280;18549;42.286;22.688;2022-09-09T01:07:44;95858.34;;;23.63
32039;BMP280;18549;42.286;22.688;2022-09-09T01:10:21;95858.50;;;23.61
32039;BMP280;18549;42.286;22.688;2022-09-09T01:12:52;95851.25;;;23.58
32039;BMP280;18549;42.286;22.688;2022-09-09T01:15:24;95853.78;;;23.58
32039;BMP280;18549;42.286;22.688;2022-09-09T01:18:00;95853.00;;;23.58
32039;BMP280;18549;42.286;22.688;2022-09-09T01:20:33;95840.37;;;23.50
32039;BMP280;18549;42.286;22.688;2022-09-09T01:23:20;95832.84;;;23.42
32039;BMP280;18549;42.286;22.688;2022-09-09T01:26:14;95840.31;;;23.36
32039;BMP280;18549;42.286;22.688;2022-09-09T01:28:44;95847.78;;;23.29
32039;BMP280;18549;42.286;22.688;2022-09-09T01:31:18;95852.84;;;23.29
32039;BMP280;18549;42.286;22.688;2022-09-09T01:33:46;95851.59;;;23.25
32039;BMP280;18549;42.286;22.688;2022-09-09T01:36:20;95829.66;;;23.26
32039;BMP280;18549;42.286;22.688;2022-09-09T01:38:48;95849.06;;;23.25
32039;BMP280;18549;42.286;22.688;2022-09-09T01:41:17;95841.81;;;23.22
32039;BMP280;18549;42.286;22.688;2022-09-09T01:43:45;95842.44;;;23.24
32039;BMP280;18549;42.286;22.688;2022-09-09T01:46:13;95846.53;;;23.25
32039;BMP280;18549;42.286;22.688;2022-09-09T01:48:41;95849.41;;;23.22
32039;BMP280;18549;42.286;22.688;2022-09-09T01:51:10;95847.84;;;23.21
32039;BMP280;18549;42.286;22.688;2022-09-09T01:53:39;95853.53;;;23.23
32039;BMP280;18549;42.286;22.688;2022-09-09T01:56:24;95843.56;;;23.22
32039;BMP280;18549;42.286;22.688;2022-09-09T01:59:04;95846.25;;;23.20
32039;BMP280;18549;42.286;22.688;2022-09-09T02:01:42;95845.47;;;23.20
32039;BMP280;18549;42.286;22.688;2022-09-09T02:04:21;95857.34;;;23.19
32039;BMP280;18549;42.286;22.688;2022-09-09T02:06:54;95856.38;;;23.20
32039;BMP280;18549;42.286;22.688;2022-09-09T02:09:24;95854.19;;;23.17
32039;BMP280;18549;42.286;22.688;2022-09-09T02:11:58;95855.31;;;23.15
32039;BMP280;18549;42.286;22.688;2022-09-09T02:14:29;95854.06;;;23.11
32039;BMP280;18549;42.286;22.688;2022-09-09T02:17:01;95848.22;;;23.11
32039;BMP280;18549;42.286;22.688;2022-09-09T02:19:32;95852.66;;;23.09
32039;BMP280;18549;42.286;22.688;2022-09-09T02:22:01;95852.81;;;23.07
32039;BMP280;18549;42.286;22.688;2022-09-09T02:24:32;95855.53;;;23.06
32039;BMP280;18549;42.286;22.688;2022-09-09T02:27:03;95853.16;;;23.04
32039;BMP280;18549;42.286;22.688;2022-09-09T02:29:36;95847.31;;;23.04
32039;BMP280;18549;42.286;22.688;2022-09-09T02:32:07;95850.00;;;23.02
32039;BMP280;18549;42.286;22.688;2022-09-09T02:34:39;95847.66;;;23.01
32039;BMP280;18549;42.286;22.688;2022-09-09T02:37:08;95850.97;;;23.01
32039;BMP280;18549;42.286;22.688;2022-09-09T02:39:36;95844.94;;;23.02
32039;BMP280;18549;42.286;22.688;2022-09-09T02:42:05;95847.03;;;22.99
32039;BMP280;18549;42.286;22.688;2022-09-09T02:44:34;95852.56;;;22.94
32039;BMP280;18549;42.286;22.688;2022-09-09T02:47:21;95853.50;;;22.93
32039;BMP280;18549;42.286;22.688;2022-09-09T02:50:03;95857.16;;;22.91
32039;BMP280;18549;42.286;22.688;2022-09-09T02:52:38;95847.87;;;22.84
32039;BMP280;18549;42.286;22.688;2022-09-09T02:55:14;95849.63;;;22.83
32039;BMP280;18549;42.286;22.688;2022-09-09T02:57:46;95849.63;;;22.83
32039;BMP280;18549;42.286;22.688;2022-09-09T03:00:14;95861.59;;;22.81
32039;BMP280;18549;42.286;22.688;2022-09-09T03:02:42;95853.38;;;22.79
32039;BMP280;18549;42.286;22.688;2022-09-09T03:05:11;95852.75;;;22.77
32039;BMP280;18549;42.286;22.688;2022-09-09T03:07:39;95847.09;;;22.75
32039;BMP280;18549;42.286;22.688;2022-09-09T03:10:08;95847.87;;;22.76
32039;BMP280;18549;42.286;22.688;2022-09-09T03:12:36;95843.78;;;22.75
32039;BMP280;18549;42.286;22.688;2022-09-09T03:15:07;95837.78;;;22.76
32039;BMP280;18549;42.286;22.688;2022-09-09T03:17:35;95839.84;;;22.72
32039;BMP280;18549;42.286;22.688;2022-09-09T03:20:03;95842.38;;;22.72
32039;BMP280;18549;42.286;22.688;2022-09-09T03:22:31;95840.94;;;22.70
32039;BMP280;18549;42.286;22.688;2022-09-09T03:24:59;95846.16;;;22.68
32039;BMP280;18549;42.286;22.688;2022-09-09T03:27:26;95849.81;;;22.66
32039;BMP280;18549;42.286;22.688;2022-09-09T03:29:54;95844.12;;;22.64
32039;BMP280;18549;42.286;22.688;2022-09-09T03:32:23;95848.25;;;22.57
32039;BMP280;18549;42.286;22.688;2022-09-09T03:34:51;95846.84;;;22.54
32039;BMP280;18549;42.286;22.688;2022-09-09T03:37:19;95847.97;;;22.52
32039;BMP280;18549;42.286;22.688;2022-09-09T03:39:48;95843.41;;;22.48
32039;BMP280;18549;42.286;22.688;2022-09-09T03:42:15;95847.66;;;22.47
32039;BMP280;18549;42.286;22.688;2022-09-09T03:44:45;95848.44;;;22.48
32039;BMP280;18549;42.286;22.688;2022-09-09T03:47:16;95845.28;;;22.46
32039;BMP280;18549;42.286;22.688;2022-09-09T03:49:46;95849.56;;;22.45
32039;BMP280;18549;42.286;22.688;2022-09-09T03:52:15;95840.41;;;22.44
32039;BMP280;18549;42.286;22.688;2022-09-09T03:54:44;95855.41;;;22.46
32039;BMP280;18549;42.286;22.688;2022-09-09T03:57:12;95857.91;;;22.46
32039;BMP280;18549;42.286;22.688;2022-09-09T03:59:42;95862.37;;;22.44
32039;BMP280;18549;42.286;22.688;2022-09-09T04:02:10;95869.31;;;22.42
32039;BMP280;18549;42.286;22.688;2022-09-09T04:04:37;95863.78;;;22.38
32039;BMP280;18549;42.286;22.688;2022-09-09T04:07:06;95865.69;;;22.36
32039;BMP280;18549;42.286;22.688;2022-09-09T04:09:34;95869.50;;;22.32
32039;BMP280;18549;42.286;22.688;2022-09-09T04:12:02;95861.28;;;22.30
32039;BMP280;18549;42.286;22.688;2022-09-09T04:14:30;95860.66;;;22.28
32039;BMP280;18549;42.286;22.688;2022-09-09T04:16:57;95859.25;;;22.26
32039;BMP280;18549;42.286;22.688;2022-09-09T04:19:25;95859.88;;;22.20
32039;BMP280;18549;42.286;22.688;2022-09-09T04:21:52;95857.53;;;22.18
32039;BMP280;18549;42.286;22.688;2022-09-09T04:24:21;95865.59;;;22.14
32039;BMP280;18549;42.286;22.688;2022-09-09T04:26:49;95863.66;;;22.16
32039;BMP280;18549;42.286;22.688;2022-09-09T04:29:18;95857.06;;;22.15
32039;BMP280;18549;42.286;22.688;2022-09-09T04:31:46;95855.50;;;22.14
32039;BMP280;18549;42.286;22.688;2022-09-09T04:34:14;95866.81;;;22.10
32039;BMP280;18549;42.286;22.688;2022-09-09T04:36:42;95869.66;;;22.07
32039;BMP280;18549;42.286;22.688;2022-09-09T04:39:09;95863.03;;;22.06
32039;BMP280;18549;42.286;22.688;2022-09-09T04:41:38;95860.19;;;22.01
32039;BMP280;18549;42.286;22.688;2022-09-09T04:44:06;95870.78;;;21.89
32039;BMP280;18549;42.286;22.688;2022-09-09T04:46:33;95861.00;;;21.86
32039;BMP280;18549;42.286;22.688;2022-09-09T04:49:01;95866.84;;;21.86
32039;BMP280;18549;42.286;22.688;2022-09-09T04:51:28;95875.66;;;21.90
32039;BMP280;18549;42.286;22.688;2022-09-09T04:53:57;95878.66;;;21.94
32039;BMP280;18549;42.286;22.688;2022-09-09T04:56:24;95873.12;;;21.98
32039;BMP280;18549;42.286;22.688;2022-09-09T04:58:55;95856.25;;;21.99
32039;BMP280;18549;42.286;22.688;2022-09-09T05:01:23;95853.59;;;22.00
32039;BMP280;18549;42.286;22.688;2022-09-09T05:03:50;95875.81;;;22.05
32039;BMP280;18549;42.286;22.688;2022-09-09T05:06:20;95870.16;;;22.03
32039;BMP280;18549;42.286;22.688;2022-09-09T05:08:48;95859.09;;;22.04
32039;BMP280;18549;42.286;22.688;2022-09-09T05:11:17;95864.63;;;22.07
32039;BMP280;18549;42.286;22.688;2022-09-09T05:13:45;95868.84;;;22.07
32039;BMP280;18549;42.286;22.688;2022-09-09T05:16:16;95869.34;;;22.10
32039;BMP280;18549;42.286;22.688;2022-09-09T05:18:44;95864.00;;;22.13
32039;BMP280;18549;42.286;22.688;2022-09-09T05:21:14;95866.69;;;22.12
32039;BMP280;18549;42.286;22.688;2022-09-09T05:23:44;95864.00;;;22.13
32039;BMP280;18549;42.286;22.688;2022-09-09T05:26:14;95847.09;;;22.14
32039;BMP280;18549;42.286;22.688;2022-09-09T05:28:44;95851.56;;;22.12
32039;BMP280;18549;42.286;22.688;2022-09-09T05:31:15;95846.63;;;22.18
32039;BMP280;18549;42.286;22.688;2022-09-09T05:33:45;95844.25;;;22.24
32039;BMP280;18549;42.286;22.688;2022-09-09T05:36:17;95849.44;;;22.31
32039;BMP280;18549;42.286;22.688;2022-09-09T05:38:47;95847.37;;;22.34
32039;BMP280;18549;42.286;22.688;2022-09-09T05:41:15;95844.25;;;22.32
32039;BMP280;18549;42.286;22.688;2022-09-09T05:43:44;95849.31;;;22.32
32039;BMP280;18549;42.286;22.688;2022-09-09T05:46:15;95856.53;;;22.35
32039;BMP280;18549;42.286;22.688;2022-09-09T05:48:43;95861.44;;;22.37
32039;BMP280;18549;42.286;22.688;2022-09-09T05:51:13;95874.38;;;22.42
32039;BMP280;18549;42.286;22.688;2022-09-09T05:53:43;95857.31;;;22.44
32039;BMP280;18549;42.286;22.688;2022-09-09T05:56:12;95848.16;;;22.43
32039;BMP280;18549;42.286;22.688;2022-09-09T05:58:41;95848.78;;;22.45
32039;BMP280;18549;42.286;22.688;2022-09-09T06:01:11;95846.87;;;22.47
32039;BMP280;18549;42.286;22.688;2022-09-09T06:03:42;95857.63;;;22.49
32039;BMP280;18549;42.286;22.688;2022-09-09T06:06:11;95869.13;;;22.51
32039;BMP280;18549;42.286;22.688;2022-09-09T06:08:40;95874.97;;;22.51
32039;BMP280;18549;42.286;22.688;2022-09-09T06:11:11;95862.66;;;22.49
32039;BMP280;18549;42.286;22.688;2022-09-09T06:13:39;95865.81;;;22.51
32039;BMP280;18549;42.286;22.688;2022-09-09T06:16:08;95853.84;;;22.45
32039;BMP280;18549;42.286;22.688;2022-09-09T06:18:37;95853.50;;;22.48
32039;BMP280;18549;42.286;22.688;2022-09-09T06:21:08;95844.50;;;22.45
32039;BMP280;18549;42.286;22.688;2022-09-09T06:23:36;95845.97;;;22.40
32039;BMP280;18549;42.286;22.688;2022-09-09T06:26:09;95837.75;;;22.38
32039;BMP280;18549;42.286;22.688;2022-09-09T06:28:37;95835.53;;;22.43
32039;BMP280;18549;42.286;22.688;2022-09-09T06:31:07;95822.25;;;22.49
32039;BMP280;18549;42.286;22.688;2022-09-09T06:33:36;95822.06;;;22.58
32039;BMP280;18549;42.286;22.688;2022-09-09T06:36:11;95831.97;;;22.59
32039;BMP280;18549;42.286;22.688;2022-09-09T06:38:39;95846.50;;;22.65
32039;BMP280;18549;42.286;22.688;2022-09-09T06:41:08;95847.03;;;22.53
32039;BMP280;18549;42.286;22.688;2022-09-09T06:43:36;95838.28;;;22.63
32039;BMP280;18549;42.286;22.688;2022-09-09T06:46:05;95839.87;;;22.64
32039;BMP280;18549;42.286;22.688;2022-09-09T06:48:33;95844.75;;;22.74
32039;BMP280;18549;42.286;22.688;2022-09-09T06:51:03;95842.66;;;22.85
32039;BMP280;18549;42.286;22.688;2022-09-09T06:53:33;95834.69;;;22.96
32039;BMP280;18549;42.286;22.688;2022-09-09T06:56:01;95827.72;;;23.06
32039;BMP280;18549;42.286;22.688;2022-09-09T06:58:29;95814.84;;;23.15
32039;BMP280;18549;42.286;22.688;2022-09-09T07:01:03;95821.16;;;23.19
32039;BMP280;18549;42.286;22.688;2022-09-09T07:03:30;95835.50;;;23.18
32039;BMP280;18549;42.286;22.688;2022-09-09T07:05:58;95842.94;;;23.20
32039;BMP280;18549;42.286;22.688;2022-09-09T07:08:25;95830.47;;;23.18
32039;BMP280;18549;42.286;22.688;2022-09-09T07:11:02;95827.62;;;23.21
32039;BMP280;18549;42.286;22.688;2022-09-09T07:13:31;95829.81;;;23.24
32039;BMP280;18549;42.286;22.688;2022-09-09T07:16:04;95820.59;;;23.31
32039;BMP280;18549;42.286;22.688;2022-09-09T07:18:32;95819.69;;;23.24
32039;BMP280;18549;42.286;22.688;2022-09-09T07:21:01;95822.06;;;23.26
32039;BMP280;18549;42.286;22.688;2022-09-09T07:23:29;95826.50;;;23.24
32039;BMP280;18549;42.286;22.688;2022-09-09T07:25:59;95826.00;;;23.28
32039;BMP280;18549;42.286;22.688;2022-09-09T07:28:26;95832.34;;;23.24
32039;BMP280;18549;42.286;22.688;2022-09-09T07:30:58;95834.22;;;23.30
32039;BMP280;18549;42.286;22.688;2022-09-09T07:33:27;95824.41;;;23.27
32039;BMP280;18549;42.286;22.688;2022-09-09T07:36:02;95824.69;;;23.32
32039;BMP280;18549;42.286;22.688;2022-09-09T07:38:30;95826.47;;;23.46
32039;BMP280;18549;42.286;22.688;2022-09-09T07:41:05;95826.13;;;23.57
32039;BMP280;18549;42.286;22.688;2022-09-09T07:43:33;95832.06;;;23.64
32039;BMP280;18549;42.286;22.688;2022-09-09T07:46:01;95839.69;;;23.78
32039;BMP280;18549;42.286;22.688;2022-09-09T07:48:28;95849.63;;;23.87
32039;BMP280;18549;42.286;22.688;2022-09-09T07:51:07;95847.63;;;23.97
32039;BMP280;18549;42.286;22.688;2022-09-09T07:53:36;95848.78;;;24.09
32039;BMP280;18549;42.286;22.688;2022-09-09T07:56:07;95846.97;;;24.17
32039;BMP280;18549;42.286;22.688;2022-09-09T07:58:35;95859.12;;;24.22
32039;BMP280;18549;42.286;22.688;2022-09-09T08:01:07;95850.88;;;24.20
32039;BMP280;18549;42.286;22.688;2022-09-09T08:03:35;95854.06;;;24.22
32039;BMP280;18549;42.286;22.688;2022-09-09T08:06:03;95849.78;;;24.22
32039;BMP280;18549;42.286;22.688;2022-09-09T08:08:32;95851.34;;;24.23
32039;BMP280;18549;42.286;22.688;2022-09-09T08:11:04;95841.22;;;24.23
32039;BMP280;18549;42.286;22.688;2022-09-09T08:13:35;95842.03;;;24.24
32039;BMP280;18549;42.286;22.688;2022-09-09T08:16:07;95836.16;;;24.23
32039;BMP280;18549;42.286;22.688;2022-09-09T08:18:35;95829.38;;;24.24
32039;BMP280;18549;42.286;22.688;2022-09-09T08:21:08;95823.16;;;24.26
32039;BMP280;18549;42.286;22.688;2022-09-09T08:23:39;95828.22;;;24.26
32039;BMP280;18549;42.286;22.688;2022-09-09T08:26:10;95821.22;;;24.28
32039;BMP280;18549;42.286;22.688;2022-09-09T08:28:40;95804.03;;;24.24
32039;BMP280;18549;42.286;22.688;2022-09-09T08:31:10;95799.56;;;24.26
32039;BMP280;18549;42.286;22.688;2022-09-09T08:33:38;95802.69;;;24.28
32039;BMP280;18549;42.286;22.688;2022-09-09T08:36:10;95810.91;;;24.30
32039;BMP280;18549;42.286;22.688;2022-09-09T08:38:38;95822.63;;;24.31
32039;BMP280;18549;42.286;22.688;2022-09-09T08:41:27;95820.69;;;24.33
32039;BMP280;18549;42.286;22.688;2022-09-09T08:44:03;95816.59;;;24.32
32039;BMP280;18549;42.286;22.688;2022-09-09T08:46:40;95827.00;;;24.37
32039;BMP280;18549;42.286;22.688;2022-09-09T08:49:21;95822.38;;;24.40
32039;BMP280;18549;42.286;22.688;2022-09-09T08:51:55;95823.50;;;24.38
32039;BMP280;18549;42.286;22.688;2022-09-09T08:54:24;95827.88;;;24.44
32039;BMP280;18549;42.286;22.688;2022-09-09T08:56:53;95817.37;;;24.47
32039;BMP280;18549;42.286;22.688;2022-09-09T08:59:23;95816.06;;;24.51
32039;BMP280;18549;42.286;22.688;2022-09-09T09:02:00;95813.97;;;24.54
32039;BMP280;18549;42.286;22.688;2022-09-09T09:04:44;95829.00;;;24.55
32039;BMP280;18549;42.286;22.688;2022-09-09T09:07:23;95839.84;;;24.50
32039;BMP280;18549;42.286;22.688;2022-09-09T09:09:57;95835.41;;;24.52
32039;BMP280;18549;42.286;22.688;2022-09-09T09:12:35;95834.41;;;24.52
32039;BMP280;18549;42.286;22.688;2022-09-09T09:15:11;95831.53;;;24.55
32039;BMP280;18549;42.286;22.688;2022-09-09T09:17:42;95819.66;;;24.56
32039;BMP280;18549;42.286;22.688;2022-09-09T09:20:12;95821.47;;;24.62
32039;BMP280;18549;42.286;22.688;2022-09-09T09:22:47;95813.72;;;24.63
32039;BMP280;18549;42.286;22.688;2022-09-09T09:25:19;95813.09;;;24.61
32039;BMP280;18549;42.286;22.688;2022-09-09T09:27:52;95807.06;;;24.62
32039;BMP280;18549;42.286;22.688;2022-09-09T09:30:33;95809.25;;;24.65
32039;BMP280;18549;42.286;22.688;2022-09-09T09:33:06;95800.50;;;24.68
32039;BMP280;18549;42.286;22.688;2022-09-09T09:35:36;95804.19;;;24.65
32039;BMP280;18549;42.286;22.688;2022-09-09T09:38:13;95807.13;;;24.69
32039;BMP280;18549;42.286;22.688;2022-09-09T09:40:49;95804.22;;;24.72
32039;BMP280;18549;42.286;22.688;2022-09-09T09:43:21;95812.81;;;24.71
32039;BMP280;18549;42.286;22.688;2022-09-09T09:45:52;95802.06;;;24.69
32039;BMP280;18549;42.286;22.688;2022-09-09T09:48:19;95794.91;;;24.72
32039;BMP280;18549;42.286;22.688;2022-09-09T09:50:49;95804.69;;;24.75
32039;BMP280;18549;42.286;22.688;2022-09-09T09:53:21;95798.84;;;24.75
32039;BMP280;18549;42.286;22.688;2022-09-09T09:55:55;95801.97;;;24.77
32039;BMP280;18549;42.286;22.688;2022-09-09T09:58:23;95809.75;;;24.75
32039;BMP280;18549;42.286;22.688;2022-09-09T10:00:54;95806.84;;;24.78
32039;BMP280;18549;42.286;22.688;2022-09-09T10:03:25;95802.41;;;24.80
32039;BMP280;18549;42.286;22.688;2022-09-09T10:05:53;95812.00;;;24.84
32039;BMP280;18549;42.286;22.688;2022-09-09T10:08:23;95819.44;;;24.86
32039;BMP280;18549;42.286;22.688;2022-09-09T10:11:12;95816.91;;;24.86
32039;BMP280;18549;42.286;22.688;2022-09-09T10:13:50;95821.00;;;24.87
32039;BMP280;18549;42.286;22.688;2022-09-09T10:16:31;95824.78;;;24.91
32039;BMP280;18549;42.286;22.688;2022-09-09T10:19:05;95825.75;;;24.90
32039;BMP280;18549;42.286;22.688;2022-09-09T10:22:01;95826.19;;;24.93
32039;BMP280;18549;42.286;22.688;2022-09-09T10:25:00;95830.47;;;24.93
32039;BMP280;18549;42.286;22.688;2022-09-09T10:27:38;95837.31;;;24.92
32039;BMP280;18549;42.286;22.688;2022-09-09T10:30:15;95847.25;;;24.94
32039;BMP280;18549;42.286;22.688;2022-09-09T10:32:49;95852.31;;;24.94
32039;BMP280;18549;42.286;22.688;2022-09-09T10:35:29;95835.56;;;24.93
32039;BMP280;18549;42.286;22.688;2022-09-09T10:38:11;95843.16;;;24.93
32039;BMP280;18549;42.286;22.688;2022-09-09T10:40:43;95842.78;;;24.96
32039;BMP280;18549;42.286;22.688;2022-09-09T10:43:28;95851.00;;;24.98
32039;BMP280;18549;42.286;22.688;2022-09-09T10:46:06;95856.09;;;24.98
32039;BMP280;18549;42.286;22.688;2022-09-09T10:48:46;95843.41;;;24.98
32039;BMP280;18549;42.286;22.688;2022-09-09T10:51:24;95841.47;;;25.00
32039;BMP280;18549;42.286;22.688;2022-09-09T10:54:11;95840.16;;;25.04
32039;BMP280;18549;42.286;22.688;2022-09-09T10:56:40;95842.34;;;25.07
32039;BMP280;18549;42.286;22.688;2022-09-09T10:59:13;95830.28;;;25.09
32039;BMP280;18549;42.286;22.688;2022-09-09T11:01:44;95826.38;;;25.13
32039;BMP280;18549;42.286;22.688;2022-09-09T11:04:19;95810.63;;;25.17
32039;BMP280;18549;42.286;22.688;2022-09-09T11:06:52;95813.62;;;25.20
32039;BMP280;18549;42.286;22.688;2022-09-09T11:09:23;95805.47;;;25.25
32039;BMP280;18549;42.286;22.688;2022-09-09T11:11:55;95796.69;;;25.27
32039;BMP280;18549;42.286;22.688;2022-09-09T11:14:28;95802.37;;;25.29
32039;BMP280;18549;42.286;22.688;2022-09-09T11:17:00;95796.09;;;25.25
32039;BMP280;18549;42.286;22.688;2022-09-09T11:19:33;95785.16;;;25.25
32039;BMP280;18549;42.286;22.688;2022-09-09T11:22:03;95778.50;;;25.24
32039;BMP280;18549;42.286;22.688;2022-09-09T11:24:38;95784.38;;;25.24
32039;BMP280;18549;42.286;22.688;2022-09-09T11:27:11;95790.41;;;25.23
32039;BMP280;18549;42.286;22.688;2022-09-09T11:30:04;95782.81;;;25.23
32039;BMP280;18549;42.286;22.688;2022-09-09T11:35:48;95775.38;;;25.22
32039;BMP280;18549;42.286;22.688;2022-09-09T11:38:26;95781.66;;;25.26
32039;BMP280;18549;42.286;22.688;2022-09-09T11:40:55;95782.44;;;25.26
32039;BMP280;18549;42.286;22.688;2022-09-09T11:43:28;95784.88;;;25.34
32039;BMP280;18549;42.286;22.688;2022-09-09T11:45:59;95783.34;;;25.40
32039;BMP280;18549;42.286;22.688;2022-09-09T11:48:32;95781.84;;;25.45
32039;BMP280;18549;42.286;22.688;2022-09-09T11:51:07;95793.37;;;25.48
32039;BMP280;18549;42.286;22.688;2022-09-09T11:53:35;95789.69;;;25.50
32039;BMP280;18549;42.286;22.688;2022-09-09T11:56:24;95786.16;;;25.51
32039;BMP280;18549;42.286;22.688;2022-09-09T11:58:58;95789.34;;;25.53
32039;BMP280;18549;42.286;22.688;2022-09-09T12:01:34;95791.25;;;25.51
32039;BMP280;18549;42.286;22.688;2022-09-09T12:06:58;95791.44;;;25.50
32039;BMP280;18549;42.286;22.688;2022-09-09T12:09:31;95801.78;;;25.48
32039;BMP280;18549;42.286;22.688;2022-09-09T12:12:16;95804.69;;;25.45
32039;BMP280;18549;42.286;22.688;2022-09-09T12:14:59;95796.25;;;25.45
32039;BMP280;18549;42.286;22.688;2022-09-09T12:17:29;95789.81;;;25.42
32039;BMP280;18549;42.286;22.688;2022-09-09T12:20:03;95782.62;;;25.46
32039;BMP280;18549;42.286;22.688;2022-09-09T12:22:41;95784.19;;;25.47
32039;BMP280;18549;42.286;22.688;2022-09-09T12:25:18;95782.62;;;25.46
32039;BMP280;18549;42.286;22.688;2022-09-09T12:27:58;95775.62;;;25.48
32039;BMP280;18549;42.286;22.688;2022-09-09T12:30:31;95772.47;;;25.46
32039;BMP280;18549;42.286;22.688;2022-09-09T12:33:01;95781.31;;;25.50
32039;BMP280;18549;42.286;22.688;2022-09-09T12:35:30;95765.25;;;25.49
32039;BMP280;18549;42.286;22.688;2022-09-09T12:38:01;95760.31;;;25.41
32039;BMP280;18549;42.286;22.688;2022-09-09T12:40:31;95754.87;;;25.44
32039;BMP280;18549;42.286;22.688;2022-09-09T12:43:01;95755.31;;;25.48
32039;BMP280;18549;42.286;22.688;2022-09-09T12:45:31;95750.41;;;25.46
32039;BMP280;18549;42.286;22.688;2022-09-09T12:48:00;95745.34;;;25.46
32039;BMP280;18549;42.286;22.688;2022-09-09T12:50:31;95742.03;;;25.46
32039;BMP280;18549;42.286;22.688;2022-09-09T12:53:06;95727.34;;;25.41
32039;BMP280;18549;42.286;22.688;2022-09-09T12:55:36;95738.09;;;25.43
32039;BMP280;18549;42.286;22.688;2022-09-09T12:58:06;95736.50;;;25.42
32039;BMP280;18549;42.286;22.688;2022-09-09T13:00:34;95728.88;;;25.36
32039;BMP280;18549;42.286;22.688;2022-09-09T13:03:13;95729.03;;;25.34
32039;BMP280;18549;42.286;22.688;2022-09-09T13:05:43;95717.69;;;25.30
32039;BMP280;18549;42.286;22.688;2022-09-09T13:08:15;95704.81;;;25.32
32039;BMP280;18549;42.286;22.688;2022-09-09T13:10:47;95694.25;;;25.28
32039;BMP280;18549;42.286;22.688;2022-09-09T13:13:21;95691.91;;;25.27
32039;BMP280;18549;42.286;22.688;2022-09-09T13:15:51;95684.47;;;25.25
32039;BMP280;18549;42.286;22.688;2022-09-09T13:18:23;95670.41;;;25.23
32039;BMP280;18549;42.286;22.688;2022-09-09T13:20:54;95675.41;;;25.17
32039;BMP280;18549;42.286;22.688;2022-09-09T13:23:30;95664.13;;;25.19
32039;BMP280;18549;42.286;22.688;2022-09-09T13:26:02;95657.28;;;25.19
32039;BMP280;18549;42.286;22.688;2022-09-09T13:28:34;95651.09;;;25.22
32039;BMP280;18549;42.286;22.688;2022-09-09T13:31:23;95653.25;;;25.25
32039;BMP280;18549;42.286;22.688;2022-09-09T13:33:53;95646.59;;;25.24
32039;BMP280;18549;42.286;22.688;2022-09-09T13:36:29;95635.50;;;25.25
32039;BMP280;18549;42.286;22.688;2022-09-09T13:39:00;95617.72;;;25.25
32039;BMP280;18549;42.286;22.688;2022-09-09T13:41:31;95624.56;;;25.24
32039;BMP280;18549;42.286;22.688;2022-09-09T13:44:00;95625.75;;;25.28
32039;BMP280;18549;42.286;22.688;2022-09-09T13:46:32;95630.47;;;25.31
32039;BMP280;18549;42.286;22.688;2022-09-09T13:49:01;95635.16;;;25.34
32039;BMP280;18549;42.286;22.688;2022-09-09T13:51:37;95639.47;;;25.40
32039;BMP280;18549;42.286;22.688;2022-09-09T13:54:08;95640.84;;;25.63
32039;BMP280;18549;42.286;22.688;2022-09-09T13:56:37;95632.13;;;25.79
32039;BMP280;18549;42.286;22.688;2022-09-09T13:59:06;95638.06;;;25.92
32039;BMP280;18549;42.286;22.688;2022-09-09T14:01:37;95633.00;;;25.98
32039;BMP280;18549;42.286;22.688;2022-09-09T14:04:06;95625.97;;;25.94
32039;BMP280;18549;42.286;22.688;2022-09-09T14:06:34;95624.91;;;25.76
32039;BMP280;18549;42.286;22.688;2022-09-09T14:09:07;95627.84;;;25.79
32039;BMP280;18549;42.286;22.688;2022-09-09T14:11:36;95623.91;;;25.77
32039;BMP280;18549;42.286;22.688;2022-09-09T14:14:04;95619.09;;;25.82
32039;BMP280;18549;42.286;22.688;2022-09-09T14:16:32;95617.31;;;25.82
32039;BMP280;18549;42.286;22.688;2022-09-09T14:18:59;95622.56;;;25.81
32039;BMP280;18549;42.286;22.688;2022-09-09T14:21:27;95626.69;;;25.82
32039;BMP280;18549;42.286;22.688;2022-09-09T14:23:55;95629.81;;;25.84
32039;BMP280;18549;42.286;22.688;2022-09-09T14:26:25;95639.00;;;25.85
32039;BMP280;18549;42.286;22.688;2022-09-09T14:28:54;95634.16;;;25.89